sensor_id;sensor_type;location;lat;lon;timestamp;temperature;humidity
20856;DHT22;63058;49.424;8.420;2023-12-20T00:02:15;8.20;99.90
20856;DHT22;63058;49.424;8.420;2023-12-20T00:04:42;8.20;99.90
20856;DHT22;63058;49.424;8.420;2023-12-20T00:07:10;8.20;99.90
20856;DHT22;63058;49.424;8.420;2023-12-20T00:09:39;8.20;99.90
20856;DHT22;63058;49.424;8.420;2023-12-20T00:12:04;8.30;99.90
20856;DHT22;63058;49.424;8.420;2023-12-20T00:14:30;8.20;99.90
20856;DHT22;63058;49.424;8.420;2023-12-20T00:16:56;8.30;99.90
20856;DHT22;63058;49.424;8.420;2023-12-20T00:19:21;8.40;99.90
20856;DHT22;63058;49.424;8.420;2023-12-20T00:21:54;8.20;99.90
20856;DHT22;63058;49.424;8.420;2023-12-20T00:24:19;8.20;99.90
20856;DHT22;63058;49.424;8.420;2023-12-20T00:26:46;8.30;99.90
20856;DHT22;63058;49.424;8.420;2023-12-20T00:29:12;8.20;99.90
20856;DHT22;63058;49.424;8.420;2023-12-20T00:31:43;8.30;99.90
20856;DHT22;63058;49.424;8.420;2023-12-20T00:34:09;8.30;99.90
20856;DHT22;63058;49.424;8.420;2023-12-20T00:36:35;8.20;99.90
20856;DHT22;63058;49.424;8.420;2023-12-20T00:39:03;8.30;99.90
20856;DHT22;63058;49.424;8.420;2023-12-20T00:41:36;8.20;99.90
20856;DHT22;63058;49.424;8.420;2023-12-20T00:44:22;8.30;99.90
20856;DHT22;63058;49.424;8.420;2023-12-20T00:46:50;8.30;99.90
20856;DHT22;63058;49.424;8.420;2023-12-20T00:49:16;8.20;99.90
20856;DHT22;63058;49.424;8.420;2023-12-20T00:51:48;8.20;99.90
20856;DHT22;63058;49.424;8.420;2023-12-20T00:54:16;8.40;99.90
20856;DHT22;63058;49.424;8.420;2023-12-20T00:56:41;8.20;99.90
20856;DHT22;63058;49.424;8.420;2023-12-20T00:59:16;8.30;99.90
20856;DHT22;63058;49.424;8.420;2023-12-20T01:01:42;8.20;99.90
20856;DHT22;63058;49.424;8.420;2023-12-20T01:04:20;8.30;99.90
20856;DHT22;63058;49.424;8.420;2023-12-20T01:06:52;8.30;99.90
20856;DHT22;63058;49.424;8.420;2023-12-20T01:09:18;8.10;99.90
20856;DHT22;63058;49.424;8.420;2023-12-20T01:11:44;8.30;99.90
20856;DHT22;63058;49.424;8.420;2023-12-20T01:14:16;8.30;99.90
20856;DHT22;63058;49.424;8.420;2023-12-20T01:16:45;8.40;99.90
20856;DHT22;63058;49.424;8.420;2023-12-20T01:19:14;8.30;99.90
20856;DHT22;63058;49.424;8.420;2023-12-20T01:21:49;8.40;99.90
20856;DHT22;63058;49.424;8.420;2023-12-20T01:24:20;8.40;99.90
20856;DHT22;63058;49.424;8.420;2023-12-20T01:26:50;8.20;99.90
20856;DHT22;63058;49.424;8.420;2023-12-20T01:29:18;8.30;99.90
20856;DHT22;63058;49.424;8.420;2023-12-20T01:31:43;8.20;99.90
20856;DHT22;63058;49.424;8.420;2023-12-20T01:34:15;8.30;99.90
20856;DHT22;63058;49.424;8.420;2023-12-20T01:36:41;8.30;99.90
20856;DHT22;63058;49.424;8.420;2023-12-20T01:39:06;8.40;99.90
20856;DHT22;63058;49.424;8.420;2023-12-20T01:41:38;8.30;99.90
20856;DHT22;63058;49.424;8.420;2023-12-20T01:44:06;8.30;99.90
20856;DHT22;63058;49.424;8.420;2023-12-20T01:46:32;8.30;99.90
20856;DHT22;63058;49.424;8.420;2023-12-20T01:49:04;8.30;99.90
20856;DHT22;63058;49.424;8.420;2023-12-20T01:51:30;8.40;99.90
20856;DHT22;63058;49.424;8.420;2023-12-20T01:53:59;8.30;99.90
20856;DHT22;63058;49.424;8.420;2023-12-20T01:56:30;8.30;99.90
20856;DHT22;63058;49.424;8.420;2023-12-20T01:59:01;8.40;99.90
20856;DHT22;63058;49.424;8.420;2023-12-20T02:01:41;8.30;99.90
20856;DHT22;63058;49.424;8.420;2023-12-20T02:04:16;8.40;99.90
20856;DHT22;63058;49.424;8.420;2023-12-20T02:06:42;8.30;99.90
20856;DHT22;63058;49.424;8.420;2023-12-20T02:09:13;8.30;99.90
20856;DHT22;63058;49.424;8.420;2023-12-20T02:11:42;8.40;99.90
20856;DHT22;63058;49.424;8.420;2023-12-20T02:14:14;8.50;99.90
20856;DHT22;63058;49.424;8.420;2023-12-20T02:16:40;8.50;99.90
20856;DHT22;63058;49.424;8.420;2023-12-20T02:19:24;8.30;99.90
20856;DHT22;63058;49.424;8.420;2023-12-20T02:21:50;8.30;99.90
20856;DHT22;63058;49.424;8.420;2023-12-20T02:24:15;8.40;99.90
20856;DHT22;63058;49.424;8.420;2023-12-20T02:26:46;8.40;99.90
20856;DHT22;63058;49.424;8.420;2023-12-20T02:29:23;8.40;99.90
20856;DHT22;63058;49.424;8.420;2023-12-20T02:31:57;8.50;99.90
20856;DHT22;63058;49.424;8.420;2023-12-20T02:34:30;8.30;99.90
20856;DHT22;63058;49.424;8.420;2023-12-20T02:37:19;8.30;99.90
20856;DHT22;63058;49.424;8.420;2023-12-20T02:39:52;8.40;99.90
20856;DHT22;63058;49.424;8.420;2023-12-20T02:42:17;8.20;99.90
20856;DHT22;63058;49.424;8.420;2023-12-20T02:44:53;8.20;99.90
20856;DHT22;63058;49.424;8.420;2023-12-20T02:47:28;8.30;99.90
20856;DHT22;63058;49.424;8.420;2023-12-20T02:50:00;8.20;99.90
20856;DHT22;63058;49.424;8.420;2023-12-20T02:52:27;8.30;99.90
20856;DHT22;63058;49.424;8.420;2023-12-20T02:55:11;8.20;99.90
20856;DHT22;63058;49.424;8.420;2023-12-20T02:57:36;8.20;99.90
20856;DHT22;63058;49.424;8.420;2023-12-20T03:00:10;8.30;99.90
20856;DHT22;63058;49.424;8.420;2023-12-20T03:02:36;8.20;99.90
20856;DHT22;63058;49.424;8.420;2023-12-20T03:05:13;8.20;99.90
20856;DHT22;63058;49.424;8.420;2023-12-20T03:07:40;8.00;99.90
20856;DHT22;63058;49.424;8.420;2023-12-20T03:10:06;8.20;99.90
20856;DHT22;63058;49.424;8.420;2023-12-20T03:12:37;8.20;99.90
20856;DHT22;63058;49.424;8.420;2023-12-20T03:15:27;8.30;99.90
20856;DHT22;63058;49.424;8.420;2023-12-20T03:17:53;8.20;99.90
20856;DHT22;63058;49.424;8.420;2023-12-20T03:20:25;8.20;99.90
20856;DHT22;63058;49.424;8.420;2023-12-20T03:22:53;8.00;99.90
20856;DHT22;63058;49.424;8.420;2023-12-20T03:25:37;8.00;99.90
20856;DHT22;63058;49.424;8.420;2023-12-20T03:28:05;8.10;99.90
20856;DHT22;63058;49.424;8.420;2023-12-20T03:30:37;8.10;99.90
20856;DHT22;63058;49.424;8.420;2023-12-20T03:33:05;8.10;99.90
20856;DHT22;63058;49.424;8.420;2023-12-20T03:35:31;8.10;99.90
20856;DHT22;63058;49.424;8.420;2023-12-20T03:38:15;8.20;99.90
20856;DHT22;63058;49.424;8.420;2023-12-20T03:40:41;8.10;99.90
20856;DHT22;63058;49.424;8.420;2023-12-20T03:43:12;8.10;99.90
20856;DHT22;63058;49.424;8.420;2023-12-20T03:45:48;8.10;99.90
20856;DHT22;63058;49.424;8.420;2023-12-20T03:48:25;8.00;99.90
20856;DHT22;63058;49.424;8.420;2023-12-20T03:53:45;8.10;99.90
20856;DHT22;63058;49.424;8.420;2023-12-20T03:56:23;8.00;99.90
20856;DHT22;63058;49.424;8.420;2023-12-20T03:58:51;8.20;99.90
20856;DHT22;63058;49.424;8.420;2023-12-20T04:01:23;8.10;99.90
20856;DHT22;63058;49.424;8.420;2023-12-20T04:03:57;8.00;99.90
20856;DHT22;63058;49.424;8.420;2023-12-20T04:06:29;8.10;99.90
20856;DHT22;63058;49.424;8.420;2023-12-20T04:09:23;8.10;99.90
20856;DHT22;63058;49.424;8.420;2023-12-20T04:11:57;8.10;99.90
20856;DHT22;63058;49.424;8.420;2023-12-20T04:14:22;8.10;99.90
20856;DHT22;63058;49.424;8.420;2023-12-20T04:16:52;8.10;99.90
20856;DHT22;63058;49.424;8.420;2023-12-20T04:19:17;8.20;99.90
20856;DHT22;63058;49.424;8.420;2023-12-20T04:21:43;8.10;99.90
20856;DHT22;63058;49.424;8.420;2023-12-20T04:24:08;8.10;99.90
20856;DHT22;63058;49.424;8.420;2023-12-20T04:26:36;8.20;99.90
20856;DHT22;63058;49.424;8.420;2023-12-20T04:29:06;8.20;99.90
20856;DHT22;63058;49.424;8.420;2023-12-20T04:31:32;8.30;99.90
20856;DHT22;63058;49.424;8.420;2023-12-20T04:33:58;8.20;99.90
20856;DHT22;63058;49.424;8.420;2023-12-20T04:36:31;8.20;99.90
20856;DHT22;63058;49.424;8.420;2023-12-20T04:38:56;8.30;99.90
20856;DHT22;63058;49.424;8.420;2023-12-20T04:41:22;8.20;99.90
20856;DHT22;63058;49.424;8.420;2023-12-20T04:43:48;8.30;99.90
20856;DHT22;63058;49.424;8.420;2023-12-20T04:46:13;8.30;99.90
20856;DHT22;63058;49.424;8.420;2023-12-20T04:48:39;8.20;99.90
20856;DHT22;63058;49.424;8.420;2023-12-20T04:51:05;8.20;99.90
20856;DHT22;63058;49.424;8.420;2023-12-20T04:53:39;8.40;99.90
20856;DHT22;63058;49.424;8.420;2023-12-20T04:56:07;8.30;99.90
20856;DHT22;63058;49.424;8.420;2023-12-20T04:58:33;8.30;99.90
20856;DHT22;63058;49.424;8.420;2023-12-20T05:01:03;8.30;99.90
20856;DHT22;63058;49.424;8.420;2023-12-20T05:03:30;8.50;99.90
20856;DHT22;63058;49.424;8.420;2023-12-20T05:05:58;8.50;99.90
20856;DHT22;63058;49.424;8.420;2023-12-20T05:08:24;8.40;99.90
20856;DHT22;63058;49.424;8.420;2023-12-20T05:10:51;8.40;99.90
20856;DHT22;63058;49.424;8.420;2023-12-20T05:13:16;8.30;99.90
20856;DHT22;63058;49.424;8.420;2023-12-20T05:15:43;8.30;99.90
20856;DHT22;63058;49.424;8.420;2023-12-20T05:18:09;8.40;99.90
20856;DHT22;63058;49.424;8.420;2023-12-20T05:20:35;8.40;99.90
20856;DHT22;63058;49.424;8.420;2023-12-20T05:23:00;8.40;99.90
20856;DHT22;63058;49.424;8.420;2023-12-20T05:25:27;8.40;99.90
20856;DHT22;63058;49.424;8.420;2023-12-20T05:27:59;8.40;99.90
20856;DHT22;63058;49.424;8.420;2023-12-20T05:30:34;8.50;99.90
20856;DHT22;63058;49.424;8.420;2023-12-20T05:33:00;8.40;99.90
20856;DHT22;63058;49.424;8.420;2023-12-20T05:35:28;8.50;99.90
20856;DHT22;63058;49.424;8.420;2023-12-20T05:38:03;8.50;99.90
20856;DHT22;63058;49.424;8.420;2023-12-20T05:40:37;8.50;99.90
20856;DHT22;63058;49.424;8.420;2023-12-20T05:43:06;8.50;99.90
20856;DHT22;63058;49.424;8.420;2023-12-20T05:45:36;8.60;99.90
20856;DHT22;63058;49.424;8.420;2023-12-20T05:48:01;8.50;99.90
20856;DHT22;63058;49.424;8.420;2023-12-20T05:50:27;8.60;99.90
20856;DHT22;63058;49.424;8.420;2023-12-20T05:53:13;8.60;99.90
20856;DHT22;63058;49.424;8.420;2023-12-20T05:55:39;8.70;99.90
20856;DHT22;63058;49.424;8.420;2023-12-20T05:58:04;8.70;99.90
20856;DHT22;63058;49.424;8.420;2023-12-20T06:00:33;8.60;99.90
20856;DHT22;63058;49.424;8.420;2023-12-20T06:03:01;8.70;99.90
20856;DHT22;63058;49.424;8.420;2023-12-20T06:05:33;8.70;99.90
20856;DHT22;63058;49.424;8.420;2023-12-20T06:07:58;8.70;99.90
20856;DHT22;63058;49.424;8.420;2023-12-20T06:10:31;8.60;99.90
20856;DHT22;63058;49.424;8.420;2023-12-20T06:13:06;8.60;99.90
20856;DHT22;63058;49.424;8.420;2023-12-20T06:15:54;8.60;99.90
20856;DHT22;63058;49.424;8.420;2023-12-20T06:18:23;8.60;99.90
20856;DHT22;63058;49.424;8.420;2023-12-20T06:21:04;8.60;99.90
20856;DHT22;63058;49.424;8.420;2023-12-20T06:23:31;8.60;99.90
20856;DHT22;63058;49.424;8.420;2023-12-20T06:25:59;8.60;99.90
20856;DHT22;63058;49.424;8.420;2023-12-20T06:28:31;8.60;99.90
20856;DHT22;63058;49.424;8.420;2023-12-20T06:31:02;8.50;99.90
20856;DHT22;63058;49.424;8.420;2023-12-20T06:33:35;8.50;99.90
20856;DHT22;63058;49.424;8.420;2023-12-20T06:36:01;8.50;99.90
20856;DHT22;63058;49.424;8.420;2023-12-20T06:38:43;8.40;99.90
20856;DHT22;63058;49.424;8.420;2023-12-20T06:41:15;8.30;99.90
20856;DHT22;63058;49.424;8.420;2023-12-20T06:43:42;8.50;99.90
20856;DHT22;63058;49.424;8.420;2023-12-20T06:46:07;8.40;99.90
20856;DHT22;63058;49.424;8.420;2023-12-20T06:48:34;8.30;99.90
20856;DHT22;63058;49.424;8.420;2023-12-20T06:51:01;8.20;99.90
20856;DHT22;63058;49.424;8.420;2023-12-20T06:53:29;8.20;99.90
20856;DHT22;63058;49.424;8.420;2023-12-20T06:55:55;8.20;99.90
20856;DHT22;63058;49.424;8.420;2023-12-20T06:58:23;8.20;99.90
20856;DHT22;63058;49.424;8.420;2023-12-20T07:00:50;8.20;99.90
20856;DHT22;63058;49.424;8.420;2023-12-20T07:03:15;8.30;99.90
20856;DHT22;63058;49.424;8.420;2023-12-20T07:05:41;8.20;99.90
20856;DHT22;63058;49.424;8.420;2023-12-20T07:08:13;8.10;99.90
20856;DHT22;63058;49.424;8.420;2023-12-20T07:10:49;7.90;99.90
20856;DHT22;63058;49.424;8.420;2023-12-20T07:13:15;8.10;99.90
20856;DHT22;63058;49.424;8.420;2023-12-20T07:15:40;8.00;99.90
20856;DHT22;63058;49.424;8.420;2023-12-20T07:18:15;7.80;99.90
20856;DHT22;63058;49.424;8.420;2023-12-20T07:20:41;7.80;99.90
20856;DHT22;63058;49.424;8.420;2023-12-20T07:25:45;7.80;99.90
20856;DHT22;63058;49.424;8.420;2023-12-20T07:28:10;7.80;99.90
20856;DHT22;63058;49.424;8.420;2023-12-20T07:30:52;7.60;99.90
20856;DHT22;63058;49.424;8.420;2023-12-20T07:33:24;7.60;99.90
20856;DHT22;63058;49.424;8.420;2023-12-20T07:35:49;7.40;99.90
20856;DHT22;63058;49.424;8.420;2023-12-20T07:38:26;7.50;99.90
20856;DHT22;63058;49.424;8.420;2023-12-20T07:41:11;7.40;99.90
20856;DHT22;63058;49.424;8.420;2023-12-20T07:43:36;7.40;99.90
20856;DHT22;63058;49.424;8.420;2023-12-20T07:46:18;7.40;99.90
20856;DHT22;63058;49.424;8.420;2023-12-20T07:49:01;7.40;99.90
20856;DHT22;63058;49.424;8.420;2023-12-20T07:51:26;7.40;99.90
20856;DHT22;63058;49.424;8.420;2023-12-20T07:53:52;7.40;99.90
20856;DHT22;63058;49.424;8.420;2023-12-20T07:56:23;7.50;99.90
20856;DHT22;63058;49.424;8.420;2023-12-20T07:58:55;7.30;99.90
20856;DHT22;63058;49.424;8.420;2023-12-20T08:01:34;7.40;99.90
20856;DHT22;63058;49.424;8.420;2023-12-20T08:04:13;7.40;99.90
20856;DHT22;63058;49.424;8.420;2023-12-20T08:06:58;7.40;99.90
20856;DHT22;63058;49.424;8.420;2023-12-20T08:09:49;7.40;99.90
20856;DHT22;63058;49.424;8.420;2023-12-20T08:12:20;7.40;99.90
20856;DHT22;63058;49.424;8.420;2023-12-20T08:14:49;7.40;99.90
20856;DHT22;63058;49.424;8.420;2023-12-20T08:20:06;7.50;99.90
20856;DHT22;63058;49.424;8.420;2023-12-20T08:22:59;7.50;99.90
20856;DHT22;63058;49.424;8.420;2023-12-20T08:25:28;7.60;99.90
20856;DHT22;63058;49.424;8.420;2023-12-20T08:27:54;7.60;99.90
20856;DHT22;63058;49.424;8.420;2023-12-20T08:30:33;7.50;99.90
20856;DHT22;63058;49.424;8.420;2023-12-20T08:33:18;7.50;99.90
20856;DHT22;63058;49.424;8.420;2023-12-20T08:35:57;7.60;99.90
20856;DHT22;63058;49.424;8.420;2023-12-20T08:38:33;7.60;99.90
20856;DHT22;63058;49.424;8.420;2023-12-20T08:41:08;7.60;99.90
20856;DHT22;63058;49.424;8.420;2023-12-20T08:43:39;7.70;99.90
20856;DHT22;63058;49.424;8.420;2023-12-20T08:46:26;7.70;99.90
20856;DHT22;63058;49.424;8.420;2023-12-20T08:49:10;7.70;99.90
20856;DHT22;63058;49.424;8.420;2023-12-20T08:51:41;7.70;99.90
20856;DHT22;63058;49.424;8.420;2023-12-20T08:54:14;7.70;99.90
20856;DHT22;63058;49.424;8.420;2023-12-20T08:56:39;7.70;99.90
20856;DHT22;63058;49.424;8.420;2023-12-20T08:59:09;7.70;99.90
20856;DHT22;63058;49.424;8.420;2023-12-20T09:01:35;7.70;99.90
20856;DHT22;63058;49.424;8.420;2023-12-20T09:04:15;7.90;99.90
20856;DHT22;63058;49.424;8.420;2023-12-20T09:06:49;7.80;99.90
20856;DHT22;63058;49.424;8.420;2023-12-20T09:09:18;8.00;99.90
20856;DHT22;63058;49.424;8.420;2023-12-20T09:12:10;8.00;99.90
20856;DHT22;63058;49.424;8.420;2023-12-20T09:14:39;8.00;99.90
20856;DHT22;63058;49.424;8.420;2023-12-20T09:17:04;8.00;99.90
20856;DHT22;63058;49.424;8.420;2023-12-20T09:19:36;8.10;99.90
20856;DHT22;63058;49.424;8.420;2023-12-20T09:22:06;8.10;99.90
20856;DHT22;63058;49.424;8.420;2023-12-20T09:24:43;8.20;99.90
20856;DHT22;63058;49.424;8.420;2023-12-20T09:27:12;8.30;99.90
20856;DHT22;63058;49.424;8.420;2023-12-20T09:29:53;8.20;99.90
20856;DHT22;63058;49.424;8.420;2023-12-20T09:32:45;8.40;99.90
20856;DHT22;63058;49.424;8.420;2023-12-20T09:35:19;8.40;99.90
20856;DHT22;63058;49.424;8.420;2023-12-20T09:38:00;8.40;99.90
20856;DHT22;63058;49.424;8.420;2023-12-20T09:40:26;8.50;99.90
20856;DHT22;63058;49.424;8.420;2023-12-20T09:43:03;8.60;99.90
20856;DHT22;63058;49.424;8.420;2023-12-20T09:45:35;8.70;99.90
20856;DHT22;63058;49.424;8.420;2023-12-20T09:48:01;8.80;99.90
20856;DHT22;63058;49.424;8.420;2023-12-20T09:50:46;8.80;99.90
20856;DHT22;63058;49.424;8.420;2023-12-20T09:53:22;8.80;99.90
20856;DHT22;63058;49.424;8.420;2023-12-20T09:55:58;9.00;99.90
20856;DHT22;63058;49.424;8.420;2023-12-20T09:58:29;9.30;99.90
20856;DHT22;63058;49.424;8.420;2023-12-20T10:00:56;9.40;99.90
20856;DHT22;63058;49.424;8.420;2023-12-20T10:03:25;9.80;99.90
20856;DHT22;63058;49.424;8.420;2023-12-20T10:05:59;9.90;99.90
20856;DHT22;63058;49.424;8.420;2023-12-20T10:08:29;10.20;99.90
20856;DHT22;63058;49.424;8.420;2023-12-20T10:10:58;10.40;99.90
20856;DHT22;63058;49.424;8.420;2023-12-20T10:13:30;10.70;99.90
20856;DHT22;63058;49.424;8.420;2023-12-20T10:18:40;11.20;99.90
20856;DHT22;63058;49.424;8.420;2023-12-20T10:21:06;11.40;99.90
20856;DHT22;63058;49.424;8.420;2023-12-20T10:23:35;11.40;99.90
20856;DHT22;63058;49.424;8.420;2023-12-20T10:26:01;11.40;99.90
20856;DHT22;63058;49.424;8.420;2023-12-20T10:28:28;11.40;99.90
20856;DHT22;63058;49.424;8.420;2023-12-20T10:30:58;11.40;99.90
20856;DHT22;63058;49.424;8.420;2023-12-20T10:33:27;11.30;99.90
20856;DHT22;63058;49.424;8.420;2023-12-20T10:35:59;11.20;99.90
20856;DHT22;63058;49.424;8.420;2023-12-20T10:38:25;11.10;99.90
20856;DHT22;63058;49.424;8.420;2023-12-20T10:40:54;11.00;99.90
20856;DHT22;63058;49.424;8.420;2023-12-20T10:43:22;10.90;99.90
20856;DHT22;63058;49.424;8.420;2023-12-20T10:45:48;10.80;99.90
20856;DHT22;63058;49.424;8.420;2023-12-20T10:48:15;10.80;99.90
20856;DHT22;63058;49.424;8.420;2023-12-20T10:50:41;10.70;99.90
20856;DHT22;63058;49.424;8.420;2023-12-20T10:53:07;10.80;99.90
20856;DHT22;63058;49.424;8.420;2023-12-20T10:55:33;10.90;99.90
20856;DHT22;63058;49.424;8.420;2023-12-20T10:58:09;11.00;99.90
20856;DHT22;63058;49.424;8.420;2023-12-20T11:00:43;11.00;99.90
20856;DHT22;63058;49.424;8.420;2023-12-20T11:03:12;11.00;99.90
20856;DHT22;63058;49.424;8.420;2023-12-20T11:06:04;11.00;99.90
20856;DHT22;63058;49.424;8.420;2023-12-20T11:08:38;10.90;99.90
20856;DHT22;63058;49.424;8.420;2023-12-20T11:13:37;10.70;99.90
20856;DHT22;63058;49.424;8.420;2023-12-20T11:16:06;10.60;99.90
20856;DHT22;63058;49.424;8.420;2023-12-20T11:18:33;10.50;99.90
20856;DHT22;63058;49.424;8.420;2023-12-20T11:21:01;10.40;99.90
20856;DHT22;63058;49.424;8.420;2023-12-20T11:23:29;10.30;99.90
20856;DHT22;63058;49.424;8.420;2023-12-20T11:25:57;10.30;99.90
20856;DHT22;63058;49.424;8.420;2023-12-20T11:28:26;10.30;99.90
20856;DHT22;63058;49.424;8.420;2023-12-20T11:30:53;10.20;99.90
20856;DHT22;63058;49.424;8.420;2023-12-20T11:33:27;10.10;99.90
20856;DHT22;63058;49.424;8.420;2023-12-20T11:35:59;10.10;99.90
20856;DHT22;63058;49.424;8.420;2023-12-20T11:38:25;10.10;99.90
20856;DHT22;63058;49.424;8.420;2023-12-20T11:40:53;10.10;99.90
20856;DHT22;63058;49.424;8.420;2023-12-20T11:43:38;10.10;99.90
20856;DHT22;63058;49.424;8.420;2023-12-20T11:46:08;10.00;99.90
20856;DHT22;63058;49.424;8.420;2023-12-20T11:48:37;10.00;99.90
20856;DHT22;63058;49.424;8.420;2023-12-20T11:51:08;10.00;99.90
20856;DHT22;63058;49.424;8.420;2023-12-20T11:53:34;10.00;99.90
20856;DHT22;63058;49.424;8.420;2023-12-20T11:56:00;10.00;99.90
20856;DHT22;63058;49.424;8.420;2023-12-20T11:58:28;9.90;99.90
20856;DHT22;63058;49.424;8.420;2023-12-20T12:00:55;9.90;99.90
20856;DHT22;63058;49.424;8.420;2023-12-20T12:03:20;9.90;99.90
20856;DHT22;63058;49.424;8.420;2023-12-20T12:05:50;9.90;99.90
20856;DHT22;63058;49.424;8.420;2023-12-20T12:08:16;9.90;99.90
20856;DHT22;63058;49.424;8.420;2023-12-20T12:10:43;9.90;99.90
20856;DHT22;63058;49.424;8.420;2023-12-20T12:13:09;9.90;99.90
20856;DHT22;63058;49.424;8.420;2023-12-20T12:15:36;9.90;99.90
20856;DHT22;63058;49.424;8.420;2023-12-20T12:18:02;9.90;99.90
20856;DHT22;63058;49.424;8.420;2023-12-20T12:20:27;9.90;99.90
20856;DHT22;63058;49.424;8.420;2023-12-20T12:23:04;9.80;99.90
20856;DHT22;63058;49.424;8.420;2023-12-20T12:25:30;9.80;99.90
20856;DHT22;63058;49.424;8.420;2023-12-20T12:27:58;9.80;99.90
20856;DHT22;63058;49.424;8.420;2023-12-20T12:30:24;9.80;99.90
20856;DHT22;63058;49.424;8.420;2023-12-20T12:32:51;9.80;99.90
20856;DHT22;63058;49.424;8.420;2023-12-20T12:35:17;9.80;99.90
20856;DHT22;63058;49.424;8.420;2023-12-20T12:37:43;9.80;99.90
20856;DHT22;63058;49.424;8.420;2023-12-20T12:40:13;9.80;99.90
20856;DHT22;63058;49.424;8.420;2023-12-20T12:42:40;9.80;99.90
20856;DHT22;63058;49.424;8.420;2023-12-20T12:45:07;9.90;99.90
20856;DHT22;63058;49.424;8.420;2023-12-20T12:47:33;9.90;99.90
20856;DHT22;63058;49.424;8.420;2023-12-20T12:49:59;9.90;99.90
20856;DHT22;63058;49.424;8.420;2023-12-20T12:52:24;9.90;99.90
20856;DHT22;63058;49.424;8.420;2023-12-20T12:54:52;9.90;99.90
20856;DHT22;63058;49.424;8.420;2023-12-20T12:57:17;9.80;99.90
20856;DHT22;63058;49.424;8.420;2023-12-20T12:59:44;9.80;99.90
20856;DHT22;63058;49.424;8.420;2023-12-20T13:02:12;9.80;99.90
20856;DHT22;63058;49.424;8.420;2023-12-20T13:04:39;9.80;99.90
20856;DHT22;63058;49.424;8.420;2023-12-20T13:07:04;9.80;99.90
20856;DHT22;63058;49.424;8.420;2023-12-20T13:09:30;9.80;99.90
20856;DHT22;63058;49.424;8.420;2023-12-20T13:11:56;9.80;99.90
20856;DHT22;63058;49.424;8.420;2023-12-20T13:14:21;9.80;99.90
20856;DHT22;63058;49.424;8.420;2023-12-20T13:16:47;9.80;99.90
20856;DHT22;63058;49.424;8.420;2023-12-20T13:19:12;9.80;99.90
20856;DHT22;63058;49.424;8.420;2023-12-20T13:21:38;9.80;99.90
20856;DHT22;63058;49.424;8.420;2023-12-20T13:24:04;9.80;99.90
20856;DHT22;63058;49.424;8.420;2023-12-20T13:26:29;9.80;99.90
20856;DHT22;63058;49.424;8.420;2023-12-20T13:28:55;9.90;99.90
20856;DHT22;63058;49.424;8.420;2023-12-20T13:31:20;9.90;99.90
20856;DHT22;63058;49.424;8.420;2023-12-20T13:33:46;10.00;99.90
20856;DHT22;63058;49.424;8.420;2023-12-20T13:36:13;10.00;99.90
20856;DHT22;63058;49.424;8.420;2023-12-20T13:38:39;10.10;99.90
20856;DHT22;63058;49.424;8.420;2023-12-20T13:41:04;10.30;99.90
20856;DHT22;63058;49.424;8.420;2023-12-20T13:43:33;10.50;99.90
20856;DHT22;63058;49.424;8.420;2023-12-20T13:46:00;10.80;99.90
20856;DHT22;63058;49.424;8.420;2023-12-20T13:48:25;11.10;99.90
20856;DHT22;63058;49.424;8.420;2023-12-20T13:50:51;11.40;99.90
20856;DHT22;63058;49.424;8.420;2023-12-20T13:53:16;11.70;99.90
20856;DHT22;63058;49.424;8.420;2023-12-20T13:55:42;11.80;99.90
20856;DHT22;63058;49.424;8.420;2023-12-20T13:58:07;11.90;99.90
20856;DHT22;63058;49.424;8.420;2023-12-20T14:00:35;11.90;99.90
20856;DHT22;63058;49.424;8.420;2023-12-20T14:03:02;11.80;99.90
20856;DHT22;63058;49.424;8.420;2023-12-20T14:05:28;11.70;99.90
20856;DHT22;63058;49.424;8.420;2023-12-20T14:07:54;11.70;99.90
20856;DHT22;63058;49.424;8.420;2023-12-20T14:10:19;11.60;99.90
20856;DHT22;63058;49.424;8.420;2023-12-20T14:12:45;11.50;99.90
20856;DHT22;63058;49.424;8.420;2023-12-20T14:15:11;11.40;99.90
20856;DHT22;63058;49.424;8.420;2023-12-20T14:17:39;11.30;99.90
20856;DHT22;63058;49.424;8.420;2023-12-20T14:20:06;11.20;99.90
20856;DHT22;63058;49.424;8.420;2023-12-20T14:22:32;11.10;99.90
20856;DHT22;63058;49.424;8.420;2023-12-20T14:24:58;11.00;99.90
20856;DHT22;63058;49.424;8.420;2023-12-20T14:27:23;10.90;99.90
20856;DHT22;63058;49.424;8.420;2023-12-20T14:29:53;10.90;99.90
20856;DHT22;63058;49.424;8.420;2023-12-20T14:32:18;10.70;99.90
20856;DHT22;63058;49.424;8.420;2023-12-20T14:34:44;10.70;99.90
20856;DHT22;63058;49.424;8.420;2023-12-20T14:37:09;10.70;99.90
20856;DHT22;63058;49.424;8.420;2023-12-20T14:39:35;10.60;99.90
20856;DHT22;63058;49.424;8.420;2023-12-20T14:42:09;10.50;99.90
20856;DHT22;63058;49.424;8.420;2023-12-20T14:44:39;10.40;99.90
20856;DHT22;63058;49.424;8.420;2023-12-20T14:47:05;10.30;99.90
20856;DHT22;63058;49.424;8.420;2023-12-20T14:49:30;10.20;99.90
20856;DHT22;63058;49.424;8.420;2023-12-20T14:51:56;10.20;99.90
20856;DHT22;63058;49.424;8.420;2023-12-20T14:54:22;10.10;99.90
20856;DHT22;63058;49.424;8.420;2023-12-20T14:56:47;10.00;99.90
20856;DHT22;63058;49.424;8.420;2023-12-20T14:59:13;10.00;99.90
20856;DHT22;63058;49.424;8.420;2023-12-20T15:01:39;9.90;99.90
20856;DHT22;63058;49.424;8.420;2023-12-20T15:04:08;9.90;99.90
20856;DHT22;63058;49.424;8.420;2023-12-20T15:06:34;9.90;99.90
20856;DHT22;63058;49.424;8.420;2023-12-20T15:09:00;9.80;99.90
20856;DHT22;63058;49.424;8.420;2023-12-20T15:11:26;9.80;99.90
20856;DHT22;63058;49.424;8.420;2023-12-20T15:13:52;9.80;99.90
20856;DHT22;63058;49.424;8.420;2023-12-20T15:16:22;9.80;99.90
20856;DHT22;63058;49.424;8.420;2023-12-20T15:18:47;9.70;99.90
20856;DHT22;63058;49.424;8.420;2023-12-20T15:21:14;9.70;99.90
20856;DHT22;63058;49.424;8.420;2023-12-20T15:23:39;9.70;99.90
20856;DHT22;63058;49.424;8.420;2023-12-20T15:26:08;9.70;99.90
20856;DHT22;63058;49.424;8.420;2023-12-20T15:28:34;9.70;99.90
20856;DHT22;63058;49.424;8.420;2023-12-20T15:30:59;9.70;99.90
20856;DHT22;63058;49.424;8.420;2023-12-20T15:33:25;9.70;99.90
20856;DHT22;63058;49.424;8.420;2023-12-20T15:35:51;9.60;99.90
20856;DHT22;63058;49.424;8.420;2023-12-20T15:38:16;9.70;99.90
20856;DHT22;63058;49.424;8.420;2023-12-20T15:40:42;9.60;99.90
20856;DHT22;63058;49.424;8.420;2023-12-20T15:43:07;9.60;99.90
20856;DHT22;63058;49.424;8.420;2023-12-20T15:45:33;9.60;99.90
20856;DHT22;63058;49.424;8.420;2023-12-20T15:47:59;9.60;99.90
20856;DHT22;63058;49.424;8.420;2023-12-20T15:50:24;9.60;99.90
20856;DHT22;63058;49.424;8.420;2023-12-20T15:52:50;9.50;99.90
20856;DHT22;63058;49.424;8.420;2023-12-20T15:55:15;9.50;99.90
20856;DHT22;63058;49.424;8.420;2023-12-20T15:57:41;9.40;99.90
20856;DHT22;63058;49.424;8.420;2023-12-20T16:00:07;9.50;99.90
20856;DHT22;63058;49.424;8.420;2023-12-20T16:02:33;9.40;99.90
20856;DHT22;63058;49.424;8.420;2023-12-20T16:04:59;9.40;99.90
20856;DHT22;63058;49.424;8.420;2023-12-20T16:07:24;9.40;99.90
20856;DHT22;63058;49.424;8.420;2023-12-20T16:09:50;9.40;99.90
20856;DHT22;63058;49.424;8.420;2023-12-20T16:12:16;9.40;99.90